createdAt,value
2018-10-02T00:00:58.077Z,23.14
2018-10-02T00:01:58.115Z,23.21
2018-10-02T00:02:58.154Z,23.23
2018-10-02T00:03:58.450Z,23.17
2018-10-02T00:04:58.237Z,23.26
2018-10-02T00:05:58.276Z,23.25
2018-10-02T00:06:58.318Z,23.18
2018-10-02T00:07:58.356Z,23.18
2018-10-02T00:08:58.392Z,23.16
2018-10-02T00:09:58.429Z,23.23
2018-10-02T00:10:58.469Z,23.20
2018-10-02T00:11:58.500Z,23.10
2018-10-02T00:12:58.536Z,23.21
2018-10-02T00:13:58.574Z,23.11
2018-10-02T00:14:58.613Z,23.11
2018-10-02T00:15:58.651Z,23.16
2018-10-02T00:16:58.939Z,23.18
2018-10-02T00:17:58.728Z,23.20
2018-10-02T00:18:58.765Z,23.16
2018-10-02T00:19:58.806Z,23.18
2018-10-02T00:20:58.842Z,23.17
2018-10-02T00:21:58.880Z,23.13
2018-10-02T00:22:58.923Z,23.16
2018-10-02T00:23:58.958Z,23.14
2018-10-02T00:24:58.995Z,23.18
2018-10-02T00:25:59.032Z,23.13
2018-10-02T00:26:59.071Z,23.18
2018-10-02T00:27:59.110Z,23.11
2018-10-02T00:28:59.155Z,23.16
2018-10-02T00:29:59.193Z,23.13
2018-10-02T00:30:59.224Z,23.07
2018-10-02T00:31:59.588Z,23.17
2018-10-02T00:32:59.301Z,23.14
2018-10-02T00:33:59.590Z,23.11
2018-10-02T00:34:59.423Z,23.14
2018-10-02T00:35:59.423Z,23.14
2018-10-02T00:36:59.452Z,23.14
2018-10-02T00:37:59.492Z,23.14
2018-10-02T00:38:59.780Z,23.07
2018-10-02T00:39:59.576Z,23.11
2018-10-02T00:40:59.613Z,23.14
2018-10-02T00:41:59.652Z,23.10
2018-10-02T00:42:59.691Z,23.14
2018-10-02T00:43:59.978Z,23.14
2018-10-02T00:44:59.759Z,23.11
2018-10-02T00:45:59.797Z,23.14
2018-10-02T00:47:00.089Z,23.16
2018-10-02T00:47:59.880Z,23.14
2018-10-02T00:48:59.918Z,23.17
2018-10-02T00:50:00.200Z,23.10
2018-10-02T00:50:59.993Z,23.17
2018-10-02T00:52:00.034Z,23.10
2018-10-02T00:53:00.071Z,23.08
2018-10-02T00:54:00.111Z,23.10
2018-10-02T00:55:00.148Z,23.10
2018-10-02T00:56:00.479Z,23.14
2018-10-02T00:57:00.215Z,23.14
2018-10-02T00:58:00.254Z,23.08
2018-10-02T00:59:00.292Z,23.14
2018-10-02T01:00:00.589Z,23.10
2018-10-02T01:01:00.368Z,23.08
2018-10-02T01:02:00.406Z,23.14
2018-10-02T01:03:00.445Z,23.13
2018-10-02T01:04:00.485Z,23.08
2018-10-02T01:05:00.521Z,23.14
2018-10-02T01:06:00.811Z,23.14
2018-10-02T01:07:00.606Z,23.11
2018-10-02T01:08:00.643Z,23.13
2018-10-02T01:09:00.681Z,23.10
2018-10-02T01:10:00.719Z,23.11
2018-10-02T01:11:00.757Z,23.11
2018-10-02T01:12:01.046Z,23.07
2018-10-02T01:13:00.833Z,23.11
2018-10-02T01:14:00.866Z,23.10
2018-10-02T01:15:00.902Z,23.11
2018-10-02T01:16:00.941Z,23.08
2018-10-02T01:17:00.978Z,23.13
2018-10-02T01:18:01.017Z,23.13
2018-10-02T01:19:01.313Z,23.14
2018-10-02T01:20:01.353Z,23.14
2018-10-02T01:21:01.137Z,23.08
2018-10-02T01:22:01.169Z,23.08
2018-10-02T01:23:01.207Z,23.14
2018-10-02T01:24:01.253Z,23.08
2018-10-02T01:25:01.541Z,23.14
2018-10-02T01:26:01.330Z,23.11
2018-10-02T01:27:01.368Z,23.14
2018-10-02T01:28:01.399Z,23.06
2018-10-02T01:29:01.437Z,23.10
2018-10-02T01:30:01.482Z,23.10
2018-10-02T01:31:01.532Z,23.13
2018-10-02T01:32:01.802Z,23.13
2018-10-02T01:33:01.596Z,23.06
2018-10-02T01:34:01.879Z,23.16
2018-10-02T01:35:01.666Z,23.18
2018-10-02T01:36:01.704Z,23.13
2018-10-02T01:37:01.743Z,23.13
2018-10-02T01:38:01.779Z,23.08
2018-10-02T01:39:01.825Z,23.08
2018-10-02T01:40:01.856Z,23.08
2018-10-02T01:41:01.894Z,23.06
2018-10-02T01:42:02.182Z,23.10
2018-10-02T01:43:01.971Z,23.11
2018-10-02T01:44:02.012Z,23.11
2018-10-02T01:45:02.046Z,23.04
2018-10-02T01:46:02.085Z,23.04
2018-10-02T01:47:02.373Z,23.08
2018-10-02T01:48:02.412Z,23.04
2018-10-02T01:49:02.200Z,23.04
2018-10-02T01:50:02.247Z,23.04
2018-10-02T01:51:02.290Z,23.08
2018-10-02T01:52:02.566Z,23.07
2018-10-02T01:53:02.359Z,23.01
2018-10-02T01:54:02.391Z,23.01
2018-10-02T01:55:02.428Z,23.01
2018-10-02T01:56:02.475Z,23.08
2018-10-02T01:57:02.514Z,23.07
2018-10-02T01:58:02.555Z,23.04
2018-10-02T01:59:02.588Z,23.04
2018-10-02T02:00:02.627Z,23.07
2018-10-02T02:01:02.657Z,23.04
2018-10-02T02:02:02.953Z,23.08
2018-10-02T02:03:02.741Z,23.07
2018-10-02T02:04:02.772Z,23.01
2018-10-02T02:05:03.060Z,23.04
2018-10-02T02:06:02.859Z,23.07
2018-10-02T02:07:02.887Z,23.10
2018-10-02T02:08:02.932Z,22.98
2018-10-02T02:09:02.969Z,23.04
2018-10-02T02:10:03.003Z,22.98
2018-10-02T02:11:03.046Z,23.04
2018-10-02T02:12:03.077Z,23.01
2018-10-02T02:13:03.122Z,22.99
2018-10-02T02:14:03.403Z,23.04
2018-10-02T02:15:03.192Z,23.02
2018-10-02T02:16:03.237Z,23.02
2018-10-02T02:17:03.275Z,23.01
2018-10-02T02:18:03.313Z,23.01
2018-10-02T02:19:03.401Z,23.01
2018-10-02T02:20:03.386Z,23.02
2018-10-02T02:21:03.419Z,23.01
2018-10-02T02:22:03.459Z,23.02
2018-10-02T02:23:03.497Z,23.02
2018-10-02T02:24:03.785Z,23.01
2018-10-02T02:25:03.572Z,23.01
2018-10-02T02:26:03.620Z,23.04
2018-10-02T02:27:03.656Z,23.01
2018-10-02T02:28:03.687Z,23.06
2018-10-02T02:29:03.725Z,23.06
2018-10-02T02:30:03.765Z,22.98
2018-10-02T02:31:03.809Z,23.04
2018-10-02T02:32:03.841Z,23.01
2018-10-02T02:33:03.877Z,23.02
2018-10-02T02:34:03.916Z,23.02
2018-10-02T02:35:03.955Z,23.01
2018-10-02T02:36:04.243Z,23.01
2018-10-02T02:37:04.037Z,23.01
2018-10-02T02:38:04.075Z,23.02
2018-10-02T02:39:04.114Z,23.02
2018-10-02T02:40:04.146Z,22.99
2018-10-02T02:41:04.196Z,23.01
2018-10-02T02:42:04.221Z,22.99
2018-10-02T02:43:04.259Z,22.95
2018-10-02T02:44:04.298Z,22.98
2018-10-02T02:45:04.342Z,23.01
2018-10-02T02:46:04.624Z,23.02
2018-10-02T02:47:04.669Z,23.01
2018-10-02T02:48:04.458Z,22.99
2018-10-02T02:49:04.494Z,23.06
2018-10-02T02:50:04.532Z,22.99
2018-10-02T02:51:04.821Z,23.01
2018-10-02T02:52:04.860Z,23.01
2018-10-02T02:53:04.648Z,23.04
2018-10-02T02:54:04.681Z,23.01
2018-10-02T02:55:04.716Z,23.02
2018-10-02T02:56:04.765Z,22.99
2018-10-02T02:57:04.800Z,23.01
2018-10-02T02:58:04.838Z,23.04
2018-10-02T02:59:04.876Z,22.99
2018-10-02T03:00:04.920Z,22.98
2018-10-02T03:01:04.944Z,23.02
2018-10-02T03:02:04.983Z,22.98
2018-10-02T03:03:05.040Z,23.04
2018-10-02T03:04:05.067Z,23.04
2018-10-02T03:05:05.097Z,22.99
2018-10-02T03:06:05.144Z,23.06
2018-10-02T03:07:05.184Z,23.04
2018-10-02T03:08:05.216Z,23.01
2018-10-02T03:09:05.249Z,22.99
2018-10-02T03:10:05.539Z,23.06
2018-10-02T03:11:05.326Z,23.01
2018-10-02T03:12:05.372Z,23.04
2018-10-02T03:13:05.660Z,22.99
2018-10-02T03:14:05.440Z,22.96
2018-10-02T03:15:05.478Z,22.99
2018-10-02T03:16:05.526Z,22.99
2018-10-02T03:17:05.568Z,22.96
2018-10-02T03:18:05.595Z,22.98
2018-10-02T03:19:05.638Z,23.01
2018-10-02T03:20:05.670Z,22.98
2018-10-02T03:21:05.710Z,22.99
2018-10-02T03:22:05.747Z,23.04
2018-10-02T03:23:05.783Z,23.02
2018-10-02T03:24:05.824Z,22.93
2018-10-02T03:25:05.867Z,22.98
2018-10-02T03:26:05.908Z,22.98
2018-10-02T03:27:05.944Z,23.04
2018-10-02T03:28:05.975Z,22.95
2018-10-02T03:29:06.012Z,22.95
2018-10-02T03:30:06.050Z,22.98
2018-10-02T03:31:06.089Z,22.98
2018-10-02T03:32:06.136Z,22.98
2018-10-02T03:33:06.168Z,23.01
2018-10-02T03:34:06.214Z,22.98
2018-10-02T03:35:06.253Z,22.96
2018-10-02T03:36:06.281Z,22.99
2018-10-02T03:37:06.317Z,22.98
2018-10-02T03:38:06.362Z,23.01
2018-10-02T03:39:06.401Z,22.99
2018-10-02T03:40:06.440Z,22.95
2018-10-02T03:41:06.477Z,22.98
2018-10-02T03:42:06.508Z,23.02
2018-10-02T03:43:06.554Z,23.04
2018-10-02T03:44:06.584Z,23.08
2018-10-02T03:45:06.621Z,23.08
2018-10-02T03:46:06.663Z,23.18
2018-10-02T03:47:06.709Z,23.16
2018-10-02T03:48:06.737Z,23.13
2018-10-02T03:49:06.775Z,23.11
2018-10-02T03:50:06.820Z,23.07
2018-10-02T03:51:06.849Z,23.20
2018-10-02T03:52:06.897Z,23.34
2018-10-02T03:53:07.184Z,23.59
2018-10-02T03:54:06.965Z,23.58
2018-10-02T03:55:07.005Z,23.56
2018-10-02T03:56:07.050Z,23.58
2018-10-02T03:57:07.338Z,23.58
2018-10-02T03:58:07.131Z,23.58
2018-10-02T03:59:07.162Z,23.59
2018-10-02T04:00:07.201Z,23.69
2018-10-02T04:01:07.238Z,23.64
2018-10-02T04:02:07.272Z,23.55
2018-10-02T04:03:07.307Z,23.55
2018-10-02T04:04:07.353Z,23.54
2018-10-02T04:05:07.387Z,23.64
2018-10-02T04:06:07.422Z,23.52
2018-10-02T04:07:07.461Z,23.58
2018-10-02T04:08:07.499Z,23.62
2018-10-02T04:09:07.537Z,23.58
2018-10-02T04:10:07.595Z,23.58
2018-10-02T04:11:07.620Z,23.62
2018-10-02T04:12:07.659Z,23.54
2018-10-02T04:13:07.726Z,23.54
2018-10-02T04:14:07.738Z,23.64
2018-10-02T04:15:07.773Z,23.64
2018-10-02T04:16:07.806Z,23.58
2018-10-02T04:17:07.842Z,23.66
2018-10-02T04:18:07.888Z,23.62
2018-10-02T04:19:07.939Z,23.62
2018-10-02T04:20:07.956Z,23.63
2018-10-02T04:21:07.994Z,23.58
2018-10-02T04:22:08.285Z,23.64
2018-10-02T04:23:08.074Z,23.55
2018-10-02T04:24:08.117Z,23.56
2018-10-02T04:25:08.147Z,23.62
2018-10-02T04:26:08.185Z,23.59
2018-10-02T04:27:08.225Z,23.64
2018-10-02T04:28:08.561Z,23.62
2018-10-02T04:29:08.307Z,23.55
2018-10-02T04:30:08.347Z,23.63
2018-10-02T04:31:08.388Z,23.58
2018-10-02T04:32:08.418Z,23.59
2018-10-02T04:33:08.453Z,23.58
2018-10-02T04:34:08.560Z,23.64
2018-10-02T04:35:08.530Z,23.69
2018-10-02T04:36:08.575Z,23.58
2018-10-02T04:37:08.606Z,23.58
2018-10-02T04:38:08.644Z,23.56
2018-10-02T04:39:08.934Z,23.64
2018-10-02T04:40:08.722Z,23.58
2018-10-02T04:41:08.757Z,23.59
2018-10-02T04:42:08.805Z,23.64
2018-10-02T04:43:08.890Z,23.64
2018-10-02T04:44:09.125Z,23.59
2018-10-02T04:45:08.912Z,23.55
2018-10-02T04:46:08.950Z,23.55
2018-10-02T04:47:08.997Z,23.54
2018-10-02T04:48:09.284Z,23.56
2018-10-02T04:49:09.082Z,23.62
2018-10-02T04:50:09.110Z,23.63
2018-10-02T04:51:09.148Z,23.56
2018-10-02T04:52:09.182Z,23.62
2018-10-02T04:53:09.224Z,23.59
2018-10-02T04:54:09.262Z,23.55
2018-10-02T04:55:09.301Z,23.64
2018-10-02T04:56:09.680Z,23.59
2018-10-02T04:57:09.369Z,23.58
2018-10-02T04:58:09.407Z,23.64
2018-10-02T04:59:09.446Z,23.58
2018-10-02T05:00:09.484Z,23.66
2018-10-02T05:01:09.521Z,23.64
2018-10-02T05:02:09.867Z,23.56
2018-10-02T05:03:09.598Z,23.66
2018-10-02T05:04:09.638Z,23.66
2018-10-02T05:05:09.674Z,23.66
2018-10-02T05:06:09.714Z,23.66
2018-10-02T05:07:09.751Z,23.71
2018-10-02T05:08:09.821Z,23.69
2018-10-02T05:09:10.077Z,23.67
2018-10-02T05:10:09.866Z,23.69
2018-10-02T05:11:09.903Z,23.66
2018-10-02T05:12:09.942Z,23.66
2018-10-02T05:13:09.980Z,23.71
2018-10-02T05:14:10.103Z,23.66
2018-10-02T05:15:10.306Z,23.62
2018-10-02T05:16:10.102Z,23.70
2018-10-02T05:17:10.132Z,23.66
2018-10-02T05:18:10.179Z,23.64
2018-10-02T05:19:10.216Z,23.58
2018-10-02T05:20:10.254Z,23.69
2018-10-02T05:21:10.299Z,23.84
2018-10-02T05:22:10.330Z,23.95
2018-10-02T05:23:10.376Z,23.86
2018-10-02T05:24:10.399Z,23.96
2018-10-02T05:25:10.537Z,23.99
2018-10-02T05:26:10.482Z,23.99
2018-10-02T05:27:10.566Z,24.04
2018-10-02T05:28:10.803Z,24.01
2018-10-02T05:29:10.592Z,24.03
2018-10-02T05:30:10.879Z,24.07
2018-10-02T05:31:10.666Z,24.03
2018-10-02T05:32:10.713Z,24.04
2018-10-02T05:33:10.755Z,24.06
2018-10-02T05:34:11.038Z,24.06
2018-10-02T05:35:10.910Z,24.07
2018-10-02T05:36:10.866Z,24.16
2018-10-02T05:37:10.908Z,24.16
2018-10-02T05:38:10.933Z,24.10
2018-10-02T05:39:10.971Z,24.18
2018-10-02T05:40:11.018Z,24.16
2018-10-02T05:41:11.057Z,24.16
2018-10-02T05:42:11.087Z,24.16
2018-10-02T05:43:11.125Z,24.21
2018-10-02T05:44:11.172Z,24.04
2018-10-02T05:45:11.207Z,23.88
2018-10-02T05:46:11.246Z,23.74
2018-10-02T05:47:11.285Z,23.73
2018-10-02T05:48:11.322Z,23.59
2018-10-02T05:49:11.360Z,23.52
2018-10-02T05:50:11.391Z,23.49
2018-10-02T05:51:11.433Z,23.51
2018-10-02T05:52:11.719Z,23.49
2018-10-02T05:53:11.756Z,23.56
2018-10-02T05:54:11.545Z,23.59
2018-10-02T05:55:11.582Z,23.59
2018-10-02T05:56:11.622Z,23.66
2018-10-02T05:57:11.658Z,23.59
2018-10-02T05:58:11.751Z,23.67
2018-10-02T05:59:11.746Z,23.69
2018-10-02T06:00:11.775Z,23.62
2018-10-02T06:01:12.066Z,23.55
2018-10-02T06:02:11.851Z,23.62
2018-10-02T06:03:11.889Z,23.70
2018-10-02T06:04:11.928Z,23.70
2018-10-02T06:05:11.972Z,23.66
2018-10-02T06:06:12.004Z,23.59
2018-10-02T06:07:12.042Z,23.55
2018-10-02T06:08:12.089Z,23.54
2018-10-02T06:09:12.125Z,23.51
2018-10-02T06:10:12.163Z,23.49
2018-10-02T06:11:12.202Z,23.51
2018-10-02T06:12:12.240Z,23.52
2018-10-02T06:13:12.278Z,23.45
2018-10-02T06:14:12.316Z,23.44
2018-10-02T06:15:12.354Z,23.52
2018-10-02T06:16:12.389Z,23.48
2018-10-02T06:17:12.422Z,23.44
2018-10-02T06:18:12.462Z,23.42
2018-10-02T06:19:12.757Z,23.42
2018-10-02T06:20:12.795Z,23.55
2018-10-02T06:21:12.582Z,23.52
2018-10-02T06:22:12.613Z,23.51
2018-10-02T06:23:12.652Z,23.44
2018-10-02T06:24:12.939Z,23.44
2018-10-02T06:25:12.727Z,23.37
2018-10-02T06:26:13.019Z,23.33
2018-10-02T06:27:12.803Z,23.34
2018-10-02T06:28:12.851Z,23.39
2018-10-02T06:29:12.886Z,23.32
2018-10-02T06:30:12.930Z,23.94
2018-10-02T06:31:12.963Z,24.13
2018-10-02T06:32:12.994Z,24.37
2018-10-02T06:33:13.045Z,24.56
2018-10-02T06:34:13.076Z,24.61
2018-10-02T06:35:13.115Z,24.79
2018-10-02T06:36:13.146Z,24.78
2018-10-02T06:37:13.190Z,24.89
2018-10-02T06:38:13.307Z,24.88
2018-10-02T06:39:13.267Z,24.97
2018-10-02T06:40:13.299Z,25.03
2018-10-02T06:41:13.340Z,25.06
2018-10-02T06:42:13.376Z,25.03
2018-10-02T06:43:13.414Z,25.04
2018-10-02T06:44:13.703Z,25.07
2018-10-02T06:45:13.489Z,25.09
2018-10-02T06:46:13.528Z,25.09
2018-10-02T06:47:13.565Z,25.14
2018-10-02T06:48:13.605Z,25.15
2018-10-02T06:49:13.642Z,25.21
2018-10-02T06:50:13.681Z,25.26
2018-10-02T06:51:13.849Z,25.25
2018-10-02T06:52:13.993Z,25.26
2018-10-02T06:53:13.812Z,25.30
2018-10-02T06:54:13.840Z,25.30
2018-10-02T06:55:13.882Z,25.26
2018-10-02T06:56:13.918Z,25.34
2018-10-02T06:57:13.955Z,25.26
2018-10-02T06:58:13.993Z,25.33
2018-10-02T06:59:14.282Z,25.40
2018-10-02T07:00:14.073Z,25.33
2018-10-02T07:01:14.110Z,25.41
2018-10-02T07:02:14.147Z,25.34
2018-10-02T07:03:14.185Z,25.37
2018-10-02T07:04:14.225Z,25.43
2018-10-02T07:05:14.261Z,25.41
2018-10-02T07:06:14.297Z,25.34
2018-10-02T07:07:14.584Z,25.39
2018-10-02T07:08:14.370Z,25.37
2018-10-02T07:09:14.409Z,25.40
2018-10-02T07:10:14.454Z,25.46
2018-10-02T07:11:14.486Z,25.37
2018-10-02T07:12:14.531Z,25.41
2018-10-02T07:13:14.569Z,25.41
2018-10-02T07:14:14.602Z,25.48
2018-10-02T07:15:14.889Z,25.41
2018-10-02T07:16:14.678Z,25.46
2018-10-02T07:17:14.965Z,25.43
2018-10-02T07:18:14.754Z,25.44
2018-10-02T07:19:14.792Z,25.43
2018-10-02T07:20:14.838Z,25.41
2018-10-02T07:21:15.127Z,25.44
2018-10-02T07:22:14.914Z,25.44
2018-10-02T07:23:14.952Z,25.44
2018-10-02T07:24:14.984Z,25.46
2018-10-02T07:25:15.022Z,25.46
2018-10-02T07:26:15.061Z,25.44
2018-10-02T07:27:15.298Z,25.49
2018-10-02T07:28:15.142Z,25.51
2018-10-02T07:29:15.182Z,25.54
2018-10-02T07:30:15.222Z,25.67
2018-10-02T07:31:15.253Z,25.74
2018-10-02T07:32:15.291Z,25.88
2018-10-02T07:33:15.330Z,25.93
2018-10-02T07:34:15.368Z,26.06
2018-10-02T07:35:15.407Z,26.07
2018-10-02T07:36:15.445Z,26.13
2018-10-02T07:37:15.484Z,26.06
2018-10-02T07:38:15.522Z,26.19
2018-10-02T07:39:15.566Z,26.26
2018-10-02T07:40:15.858Z,26.19
2018-10-02T07:41:15.636Z,26.31
2018-10-02T07:42:15.951Z,26.22
2018-10-02T07:43:15.714Z,26.34
2018-10-02T07:44:15.759Z,26.31
2018-10-02T07:45:16.047Z,26.34
2018-10-02T07:46:15.829Z,26.36
2018-10-02T07:47:15.867Z,26.30
2018-10-02T07:48:15.970Z,25.93
2018-10-02T07:49:15.950Z,25.63
2018-10-02T07:50:16.240Z,25.39
2018-10-02T07:51:16.023Z,25.12
2018-10-02T07:52:16.060Z,24.74
2018-10-02T07:53:16.102Z,24.59
2018-10-02T07:54:16.136Z,24.47
2018-10-02T07:55:16.175Z,24.44
2018-10-02T07:56:16.221Z,24.32
2018-10-02T07:57:16.251Z,24.29
2018-10-02T07:58:16.539Z,24.29
2018-10-02T07:59:16.328Z,24.26
2018-10-02T08:00:16.368Z,24.10
2018-10-02T08:01:16.404Z,24.10
2018-10-02T08:02:16.451Z,24.14
2018-10-02T08:03:16.492Z,24.16
2018-10-02T08:04:16.531Z,24.06
2018-10-02T08:05:16.670Z,24.03
2018-10-02T08:06:16.603Z,24.03
2018-10-02T08:07:16.643Z,24.06
2018-10-02T08:08:16.674Z,24.03
2018-10-02T08:09:16.711Z,23.96
2018-10-02T08:10:16.752Z,23.96
2018-10-02T08:11:16.790Z,23.99
2018-10-02T08:12:17.004Z,23.94
2018-10-02T08:13:17.123Z,23.91
2018-10-02T08:14:16.910Z,23.96
2018-10-02T08:15:16.943Z,23.92
2018-10-02T08:16:16.988Z,23.89
2018-10-02T08:17:17.276Z,23.81
2018-10-02T08:18:17.065Z,23.88
2018-10-02T08:19:17.395Z,23.82
2018-10-02T08:20:17.141Z,23.74
2018-10-02T08:21:17.179Z,23.76
2018-10-02T08:22:17.220Z,23.74
2018-10-02T08:23:17.256Z,23.76
2018-10-02T08:24:17.288Z,23.73
2018-10-02T08:25:17.326Z,23.76
2018-10-02T08:26:17.371Z,23.73
2018-10-02T08:27:17.466Z,23.70
2018-10-02T08:28:17.441Z,23.69
2018-10-02T08:29:17.784Z,23.73
2018-10-02T08:30:17.580Z,23.76
2018-10-02T08:31:17.563Z,23.73
2018-10-02T08:32:17.595Z,23.73
2018-10-02T08:33:17.634Z,23.73
2018-10-02T08:34:17.675Z,23.69
2018-10-02T08:35:17.755Z,23.71
2018-10-02T08:36:17.838Z,23.77
2018-10-02T08:37:17.790Z,23.76
2018-10-02T08:38:17.824Z,23.73
2018-10-02T08:39:17.863Z,23.73
2018-10-02T08:40:17.901Z,23.74
2018-10-02T08:41:17.945Z,23.74
2018-10-02T08:42:17.984Z,23.76
2018-10-02T08:43:18.064Z,23.76
2018-10-02T08:44:18.061Z,23.79
2018-10-02T08:45:18.349Z,23.71
2018-10-02T08:46:18.130Z,23.70
2018-10-02T08:47:18.169Z,23.77
2018-10-02T08:48:18.465Z,23.66
2018-10-02T08:49:18.252Z,23.67
2018-10-02T08:50:18.290Z,23.70
2018-10-02T08:51:18.580Z,23.62
2018-10-02T08:52:18.387Z,23.67
2018-10-02T08:53:18.398Z,23.74
2018-10-02T08:54:18.446Z,23.66
2018-10-02T08:55:18.482Z,23.67
2018-10-02T08:56:18.520Z,23.63
2018-10-02T08:57:18.558Z,23.67
2018-10-02T08:58:18.597Z,23.62
2018-10-02T08:59:18.635Z,23.56
2018-10-02T09:00:18.666Z,23.67
2018-10-02T09:01:18.703Z,23.67
2018-10-02T09:02:18.993Z,23.58
2018-10-02T09:03:18.847Z,23.66
2018-10-02T09:04:18.827Z,23.64
2018-10-02T09:05:18.864Z,23.64
2018-10-02T09:06:18.956Z,23.70
2018-10-02T09:07:18.941Z,23.64
2018-10-02T09:08:18.981Z,23.62
2018-10-02T09:09:19.268Z,23.54
2018-10-02T09:10:19.048Z,23.64
2018-10-02T09:11:19.093Z,23.58
2018-10-02T09:12:19.126Z,23.67
2018-10-02T09:13:19.163Z,23.66
2018-10-02T09:14:19.203Z,23.64
2018-10-02T09:15:19.241Z,23.54
2018-10-02T09:16:19.595Z,23.55
2018-10-02T09:17:19.333Z,23.66
2018-10-02T09:18:19.360Z,23.64
2018-10-02T09:19:19.392Z,23.62
2018-10-02T09:20:19.430Z,23.62
2018-10-02T09:21:19.469Z,23.59
2018-10-02T09:22:19.520Z,23.56
2018-10-02T09:23:19.814Z,23.64
2018-10-02T09:24:19.585Z,23.58
2018-10-02T09:25:19.621Z,23.58
2018-10-02T09:26:19.659Z,23.64
2018-10-02T09:27:19.991Z,23.54
2018-10-02T09:28:19.774Z,23.56
2018-10-02T09:29:19.781Z,23.59
2018-10-02T09:30:19.873Z,23.59
2018-10-02T09:31:19.998Z,23.55
2018-10-02T09:32:19.893Z,23.59
2018-10-02T09:33:19.995Z,23.64
2018-10-02T09:34:19.965Z,23.56
2018-10-02T09:35:20.004Z,23.58
2018-10-02T09:36:20.051Z,23.59
2018-10-02T09:37:20.089Z,23.56
2018-10-02T09:38:20.125Z,23.63
2018-10-02T09:39:20.218Z,23.63
2018-10-02T09:40:20.197Z,23.63
2018-10-02T09:41:20.233Z,23.58
2018-10-02T09:42:20.316Z,23.66
2018-10-02T09:43:20.332Z,23.62
2018-10-02T09:44:20.348Z,23.64
2018-10-02T09:45:20.399Z,23.66
2018-10-02T09:46:20.430Z,23.62
2018-10-02T09:47:20.471Z,23.59
2018-10-02T09:48:20.534Z,23.56
2018-10-02T09:49:20.545Z,23.66
2018-10-02T09:50:20.633Z,23.59
2018-10-02T09:51:20.623Z,23.64
2018-10-02T09:52:20.662Z,23.59
2018-10-02T09:53:20.702Z,23.59
2018-10-02T09:54:20.740Z,23.56
2018-10-02T09:55:20.769Z,23.58
2018-10-02T09:56:20.833Z,23.54
2018-10-02T09:57:20.852Z,23.56
2018-10-02T09:58:20.926Z,23.58
2018-10-02T09:59:20.921Z,23.52
2018-10-02T10:00:20.971Z,23.48
2018-10-02T10:01:20.998Z,23.59
2018-10-02T10:02:21.047Z,23.55
2018-10-02T10:03:21.075Z,23.58
2018-10-02T10:04:21.209Z,23.56
2018-10-02T10:05:21.150Z,23.54
2018-10-02T10:06:21.439Z,23.51
2018-10-02T10:07:21.227Z,23.52
2018-10-02T10:08:21.515Z,23.62
2018-10-02T10:09:21.303Z,23.49
2018-10-02T10:10:21.383Z,23.66
2018-10-02T10:11:21.383Z,23.54
2018-10-02T10:12:21.425Z,23.62
2018-10-02T10:13:21.465Z,23.58
2018-10-02T10:14:21.543Z,23.56
2018-10-02T10:15:21.534Z,23.63
2018-10-02T10:16:21.574Z,23.58
2018-10-02T10:17:21.616Z,23.56
2018-10-02T10:18:21.648Z,23.54
2018-10-02T10:19:21.685Z,23.56
2018-10-02T10:20:21.730Z,23.58
2018-10-02T10:21:21.768Z,23.52
2018-10-02T10:22:21.819Z,23.49
2018-10-02T10:23:21.849Z,23.49
2018-10-02T10:24:22.126Z,23.51
2018-10-02T10:25:21.914Z,23.62
2018-10-02T10:26:21.977Z,23.56
2018-10-02T10:27:21.997Z,23.56
2018-10-02T10:28:22.038Z,23.58
2018-10-02T10:29:22.075Z,23.56
2018-10-02T10:30:22.105Z,23.55
2018-10-02T10:31:22.143Z,23.54
2018-10-02T10:32:22.191Z,23.49
2018-10-02T10:33:22.247Z,23.51
2018-10-02T10:34:22.526Z,23.49
2018-10-02T10:35:22.302Z,23.56
2018-10-02T10:36:22.337Z,23.51
2018-10-02T10:37:22.371Z,23.51
2018-10-02T10:38:22.660Z,23.52
2018-10-02T10:39:22.455Z,23.56
2018-10-02T10:40:22.497Z,23.58
2018-10-02T10:41:22.524Z,23.56
2018-10-02T10:42:22.563Z,23.63
2018-10-02T10:43:22.601Z,23.56
2018-10-02T10:44:22.639Z,23.59
2018-10-02T10:45:22.692Z,23.64
2018-10-02T10:46:22.734Z,23.63
2018-10-02T10:47:22.760Z,23.52
2018-10-02T10:48:22.799Z,23.62
2018-10-02T10:49:22.835Z,23.56
2018-10-02T10:50:22.874Z,23.58
2018-10-02T10:51:22.915Z,23.62
2018-10-02T10:52:22.953Z,23.59
2018-10-02T10:53:22.988Z,23.56
2018-10-02T10:54:23.020Z,23.52
2018-10-02T10:55:23.058Z,23.54
2018-10-02T10:56:23.124Z,23.63
2018-10-02T10:57:23.134Z,23.56
2018-10-02T10:58:23.425Z,23.49
2018-10-02T10:59:23.211Z,23.51
2018-10-02T11:00:23.509Z,23.56
2018-10-02T11:01:23.294Z,23.52
2018-10-02T11:02:23.332Z,23.51
2018-10-02T11:03:23.370Z,23.54
2018-10-02T11:04:23.417Z,23.48
2018-10-02T11:05:23.438Z,23.51
2018-10-02T11:06:23.478Z,23.51
2018-10-02T11:07:23.515Z,23.56
2018-10-02T11:08:23.563Z,23.48
2018-10-02T11:09:23.626Z,23.55
2018-10-02T11:10:23.637Z,23.55
2018-10-02T11:11:23.677Z,23.47
2018-10-02T11:12:23.707Z,23.54
2018-10-02T11:13:23.752Z,23.51
2018-10-02T11:14:23.790Z,23.54
2018-10-02T11:15:23.860Z,23.54
2018-10-02T11:16:23.860Z,23.51
2018-10-02T11:17:23.897Z,23.49
2018-10-02T11:18:23.936Z,23.52
2018-10-02T11:19:24.243Z,23.49
2018-10-02T11:20:24.013Z,23.54
2018-10-02T11:21:24.058Z,23.58
2018-10-02T11:22:24.095Z,23.52
2018-10-02T11:23:24.376Z,23.59
2018-10-02T11:24:24.165Z,23.56
2018-10-02T11:25:24.388Z,23.58
2018-10-02T11:26:24.241Z,23.51
2018-10-02T11:27:24.530Z,23.51
2018-10-02T11:28:24.325Z,23.48
2018-10-02T11:29:24.362Z,23.52
2018-10-02T11:30:24.400Z,23.52
2018-10-02T11:31:24.507Z,23.54
2018-10-02T11:32:24.469Z,23.51
2018-10-02T11:33:24.759Z,23.51
2018-10-02T11:34:24.806Z,23.52
2018-10-02T11:35:24.637Z,23.56
2018-10-02T11:36:24.630Z,23.58
2018-10-02T11:37:24.710Z,23.51
2018-10-02T11:38:24.698Z,23.51
2018-10-02T11:39:24.737Z,23.49
2018-10-02T11:40:24.782Z,23.52
2018-10-02T11:41:24.821Z,23.49
2018-10-02T11:42:24.858Z,23.55
2018-10-02T11:43:24.993Z,23.51
2018-10-02T11:44:24.962Z,23.52
2018-10-02T11:45:24.972Z,23.51
2018-10-02T11:46:25.261Z,23.51
2018-10-02T11:47:25.042Z,23.45
2018-10-02T11:48:25.092Z,23.49
2018-10-02T11:49:25.172Z,23.45
2018-10-02T11:50:25.155Z,23.49
2018-10-02T11:51:25.193Z,23.48
2018-10-02T11:52:25.234Z,23.54
2018-10-02T11:53:25.269Z,23.76
2018-10-02T11:54:25.316Z,23.74
2018-10-02T11:55:25.499Z,23.66
2018-10-02T11:56:25.393Z,23.76
2018-10-02T11:57:25.434Z,23.82
2018-10-02T11:58:25.467Z,23.82
2018-10-02T11:59:25.500Z,23.84
2018-10-02T12:00:25.584Z,23.77
2018-10-02T12:01:25.639Z,23.71
2018-10-02T12:02:25.675Z,23.73
2018-10-02T12:03:25.747Z,23.71
2018-10-02T12:04:25.728Z,23.71
2018-10-02T12:05:25.726Z,23.71
2018-10-02T12:06:25.772Z,23.84
2018-10-02T12:07:25.802Z,23.79
2018-10-02T12:08:25.849Z,23.79
2018-10-02T12:09:25.889Z,23.79
2018-10-02T12:10:25.917Z,23.94
2018-10-02T12:11:26.015Z,23.92
2018-10-02T12:12:25.994Z,23.76
2018-10-02T12:13:26.145Z,23.70
2018-10-02T12:14:26.327Z,23.67
2018-10-02T12:15:26.109Z,23.73
2018-10-02T12:16:26.147Z,23.69
2018-10-02T12:17:26.184Z,23.73
2018-10-02T12:18:26.222Z,23.71
2018-10-02T12:19:26.303Z,23.66
2018-10-02T12:20:26.297Z,23.66
2018-10-02T12:21:26.339Z,23.63
2018-10-02T12:22:26.374Z,23.69
2018-10-02T12:23:26.421Z,23.63
2018-10-02T12:24:26.450Z,23.54
2018-10-02T12:25:26.488Z,23.63
2018-10-02T12:26:26.527Z,23.58
2018-10-02T12:27:26.565Z,23.64
2018-10-02T12:28:26.613Z,23.63
2018-10-02T12:29:26.646Z,23.63
2018-10-02T12:30:26.686Z,23.62
2018-10-02T12:31:26.724Z,23.69
2018-10-02T12:32:26.756Z,23.74
2018-10-02T12:33:26.792Z,23.76
2018-10-02T12:34:26.838Z,23.88
2018-10-02T12:35:26.868Z,23.79
2018-10-02T12:36:26.913Z,23.74
2018-10-02T12:37:27.201Z,23.73
2018-10-02T12:38:27.045Z,23.74
2018-10-02T12:39:27.323Z,23.69
2018-10-02T12:40:27.065Z,23.71
2018-10-02T12:41:27.101Z,23.70
2018-10-02T12:42:27.141Z,23.63
2018-10-02T12:43:27.423Z,23.74
2018-10-02T12:44:27.219Z,23.73
2018-10-02T12:45:27.255Z,23.66
2018-10-02T12:46:27.293Z,23.67
2018-10-02T12:47:27.331Z,23.64
2018-10-02T12:48:27.415Z,23.58
2018-10-02T12:49:27.400Z,23.66
2018-10-02T12:50:27.439Z,23.59
2018-10-02T12:51:27.478Z,23.62
2018-10-02T12:52:27.603Z,23.64
2018-10-02T12:53:27.551Z,23.67